createdAt,value
2018-01-06T00:05:12.585Z,5.6
2018-01-06T00:15:27.075Z,5.4
2018-01-06T00:25:41.380Z,5.3
2018-01-06T00:35:56.045Z,5.2
2018-01-06T00:46:09.839Z,5.1
2018-01-06T00:56:25.318Z,5.1
2018-01-06T01:06:40.646Z,5.1
2018-01-06T01:16:56.182Z,4.9
2018-01-06T01:27:10.742Z,4.9
2018-01-06T01:37:25.506Z,4.8
2018-01-06T01:47:40.313Z,4.5
2018-01-06T01:57:55.024Z,4.6
2018-01-06T02:08:10.020Z,4
2018-01-06T02:18:25.255Z,3.9
2018-01-06T02:28:40.887Z,3.9
2018-01-06T02:38:55.041Z,3.7
2018-01-06T02:49:10.084Z,3.9
2018-01-06T02:59:24.295Z,3.8
2018-01-06T03:09:38.915Z,3.6
2018-01-06T03:19:52.958Z,3.5
2018-01-06T03:30:08.338Z,3.3
2018-01-06T03:40:22.241Z,3.4
2018-01-06T03:50:36.089Z,3.3
2018-01-06T04:00:50.121Z,3.4
2018-01-06T04:11:04.316Z,3.5
2018-01-06T04:21:18.808Z,3.7
2018-01-06T04:31:32.776Z,3.1
2018-01-06T04:41:47.461Z,3.5
2018-01-06T04:52:01.320Z,3.8
2018-01-06T05:02:15.728Z,3.2
2018-01-06T05:12:30.290Z,3.3
2018-01-06T05:22:44.365Z,3.5
2018-01-06T05:32:59.035Z,3.6
2018-01-06T05:43:12.793Z,3.7
2018-01-06T05:53:27.834Z,3.9
2018-01-06T06:03:43.435Z,3.8
2018-01-06T06:13:57.903Z,3.8
2018-01-06T06:24:13.358Z,3.7
2018-01-06T06:34:27.544Z,3.9
2018-01-06T06:44:42.738Z,4.1
2018-01-06T06:54:57.568Z,4.4
2018-01-06T07:05:11.357Z,4.5
2018-01-06T07:15:26.056Z,4.6
2018-01-06T07:25:40.330Z,4.8
2018-01-06T07:35:54.109Z,4.8
2018-01-06T07:46:09.067Z,4.9
2018-01-06T07:56:23.703Z,4.9
2018-01-06T08:06:38.576Z,5
2018-01-06T08:16:54.024Z,4.9
2018-01-06T08:27:09.346Z,5
2018-01-06T08:37:23.562Z,4.9
2018-01-06T08:47:38.143Z,4.9
2018-01-06T08:57:52.903Z,4.8
2018-01-06T09:08:06.878Z,4.6
2018-01-06T09:18:21.692Z,4.9
2018-01-06T09:28:36.233Z,4.7
2018-01-06T09:38:50.700Z,5.1
2018-01-06T09:49:05.781Z,5.4
2018-01-06T09:59:20.173Z,5.6
2018-01-06T10:09:34.884Z,5.9
2018-01-06T10:19:50.047Z,5.9
2018-01-06T10:30:05.028Z,5.9
2018-01-06T10:40:19.122Z,6.3
2018-01-06T10:50:33.055Z,6.3
2018-01-06T11:00:47.511Z,6.5
2018-01-06T11:11:01.683Z,6.6
2018-01-06T11:21:16.204Z,6.8
2018-01-06T11:31:31.699Z,6.7
2018-01-06T11:41:46.314Z,6.6
2018-01-06T11:52:00.417Z,6.8
2018-01-06T12:02:15.980Z,6.8
2018-01-06T12:12:30.933Z,6.9
2018-01-06T12:22:45.677Z,6.9
2018-01-06T12:33:01.155Z,6.9
2018-01-06T12:43:16.069Z,6.8
2018-01-06T12:53:31.303Z,6.8
2018-01-06T13:03:46.194Z,6.8
2018-01-06T13:14:01.479Z,6.8
2018-01-06T13:24:16.220Z,6.8
2018-01-06T13:34:31.538Z,6.8
2018-01-06T13:44:46.803Z,6.8
2018-01-06T13:55:02.393Z,6.9
2018-01-06T14:05:16.324Z,6.8
2018-01-06T14:15:30.253Z,6.7
2018-01-06T14:25:45.830Z,6.5
2018-01-06T14:36:00.867Z,6.4
2018-01-06T14:46:14.752Z,6.4
2018-01-06T14:56:30.315Z,6.4
2018-01-06T15:06:45.288Z,6.4
2018-01-06T15:16:59.405Z,6.3
2018-01-06T15:27:14.398Z,6.2
2018-01-06T15:37:28.138Z,6.2
2018-01-06T15:47:43.475Z,5.9
2018-01-06T15:57:58.620Z,5.8
2018-01-06T16:08:14.185Z,5.5
2018-01-06T16:18:28.986Z,5.6
2018-01-06T16:28:44.040Z,5.7
2018-01-06T16:38:58.968Z,5.8
2018-01-06T16:49:13.185Z,5.7
2018-01-06T16:59:28.476Z,5.6
2018-01-06T17:09:44.145Z,5.5
2018-01-06T17:19:58.815Z,5.6
2018-01-06T17:30:12.556Z,5.6
2018-01-06T17:40:26.836Z,5.6
2018-01-06T17:50:40.919Z,5.6
2018-01-06T18:00:55.758Z,5.5
2018-01-06T18:11:11.338Z,5.4
2018-01-06T18:21:25.274Z,5.4
2018-01-06T18:31:39.454Z,5.5
2018-01-06T18:41:53.995Z,5.4
2018-01-06T18:52:08.201Z,5.5
2018-01-06T19:02:23.599Z,5.4
2018-01-06T19:12:39.167Z,5.6
2018-01-06T19:22:54.136Z,5.6
2018-01-06T19:33:08.035Z,5.7
2018-01-06T19:43:23.078Z,5.4
2018-01-06T19:53:37.937Z,5.1
2018-01-06T20:03:52.674Z,5
2018-01-06T20:14:06.558Z,4.8
2018-01-06T20:24:21.278Z,4.7
2018-01-06T20:34:35.825Z,4.7
2018-01-06T20:44:51.065Z,4.5
2018-01-06T20:55:05.046Z,4.5
2018-01-06T21:05:20.171Z,4.5
2018-01-06T21:15:35.015Z,4.5
2018-01-06T21:25:50.635Z,4.4
2018-01-06T21:36:05.722Z,4.4
2018-01-06T21:46:19.519Z,4.2
2018-01-06T21:56:34.904Z,4.1
2018-01-06T22:06:50.449Z,4
2018-01-06T22:17:05.981Z,3.9
2018-01-06T22:27:20.366Z,4
2018-01-06T22:37:35.897Z,3.8
2018-01-06T22:47:50.297Z,4
2018-01-06T22:58:04.589Z,3.8
2018-01-06T23:08:18.882Z,3.9
2018-01-06T23:18:34.117Z,4
2018-01-06T23:28:48.529Z,4
2018-01-06T23:39:03.895Z,4
2018-01-06T23:49:18.988Z,4.1
2018-01-06T23:59:33.532Z,4.1
